createdAt,value
2019-02-21T00:00:54.727Z,1018.3
2019-02-21T00:02:06.926Z,1018.3
2019-02-21T00:03:19.116Z,1018.3
2019-02-21T00:04:31.312Z,1018.3
2019-02-21T00:05:43.000Z,1018.3
2019-02-21T00:06:55.703Z,1018.3
2019-02-21T00:08:07.899Z,1018.3
2019-02-21T00:09:20.095Z,1018.3
2019-02-21T00:10:32.292Z,1018.3
2019-02-21T00:11:44.485Z,1018.3
2019-02-21T00:12:56.683Z,1018.3
2019-02-21T00:14:08.875Z,1018.3
2019-02-21T00:15:21.076Z,1018.2
2019-02-21T00:16:33.263Z,1018.3
2019-02-21T00:17:45.000Z,1018.2
2019-02-21T00:18:57.652Z,1018.3
2019-02-21T00:20:09.000Z,1018.3
2019-02-21T00:21:22.000Z,1018.3
2019-02-21T00:22:34.240Z,1018.3
2019-02-21T00:23:46.000Z,1018.2
2019-02-21T00:24:58.631Z,1018.2
2019-02-21T00:26:10.835Z,1018.3
2019-02-21T00:27:23.000Z,1018.2
2019-02-21T00:28:35.229Z,1018.2
2019-02-21T00:29:47.000Z,1018.2
2019-02-21T00:30:59.611Z,1018.2
2019-02-21T00:32:11.000Z,1018.2
2019-02-21T00:33:24.001Z,1018.2
2019-02-21T00:34:36.192Z,1018.2
2019-02-21T00:35:48.394Z,1018.2
2019-02-21T00:37:00.058Z,1018.2
2019-02-21T00:38:12.780Z,1018.2
2019-02-21T00:39:24.978Z,1018.2
2019-02-21T00:40:37.173Z,1018.3
2019-02-21T00:41:49.000Z,1018.3
2019-02-21T00:43:01.056Z,1018.2
2019-02-21T00:44:13.000Z,1018.2
2019-02-21T00:45:25.952Z,1018.2
2019-02-21T00:46:38.145Z,1018.2
2019-02-21T00:47:50.342Z,1018.2
2019-02-21T00:49:02.534Z,1018.2
2019-02-21T00:50:14.791Z,1018.2
2019-02-21T00:51:26.934Z,1018.2
2019-02-21T00:52:39.124Z,1018.2
2019-02-21T00:53:51.313Z,1018.2
2019-02-21T00:55:03.521Z,1018.2
2019-02-21T00:56:15.000Z,1018.2
2019-02-21T00:57:27.000Z,1018.2
2019-02-21T00:58:40.125Z,1018.2
2019-02-21T00:59:52.295Z,1018.2
2019-02-21T01:01:04.487Z,1018.2
2019-02-21T01:02:16.068Z,1018.2
2019-02-21T01:03:28.881Z,1018.2
2019-02-21T01:04:41.084Z,1018.2
2019-02-21T01:05:53.271Z,1018.2
2019-02-21T01:07:05.466Z,1018.2
2019-02-21T01:08:17.000Z,1018.2
2019-02-21T01:09:29.864Z,1018.1
2019-02-21T01:10:42.056Z,1018.1
2019-02-21T01:11:54.000Z,1018.2
2019-02-21T01:13:06.448Z,1018.2
2019-02-21T01:14:18.671Z,1018.2
2019-02-21T01:15:30.841Z,1018.1
2019-02-21T01:16:43.037Z,1018.2
2019-02-21T01:17:55.000Z,1018.1
2019-02-21T01:19:07.422Z,1018.1
2019-02-21T01:20:19.000Z,1018.1
2019-02-21T01:21:31.822Z,1018.1
2019-02-21T01:22:44.029Z,1018.1
2019-02-21T01:23:56.208Z,1018.1
2019-02-21T01:25:08.398Z,1018.1
2019-02-21T01:26:20.597Z,1018.1
2019-02-21T01:27:32.797Z,1018.1
2019-02-21T01:28:44.993Z,1018.1
2019-02-21T01:29:57.000Z,1018.1
2019-02-21T01:31:09.379Z,1018.1
2019-02-21T01:32:21.000Z,1018.1
2019-02-21T01:33:33.774Z,1018.1
2019-02-21T01:34:45.968Z,1018
2019-02-21T01:35:58.016Z,1018
2019-02-21T01:37:10.364Z,1018
2019-02-21T01:38:22.554Z,1018
2019-02-21T01:39:34.748Z,1018
2019-02-21T01:40:46.948Z,1018
2019-02-21T01:41:59.000Z,1018
2019-02-21T01:43:11.033Z,1017.9
2019-02-21T01:44:23.000Z,1018
2019-02-21T01:45:35.729Z,1018
2019-02-21T01:46:47.920Z,1018
2019-02-21T01:48:00.121Z,1017.9
2019-02-21T01:49:12.031Z,1017.9
2019-02-21T01:50:24.506Z,1017.9
2019-02-21T01:51:36.704Z,1017.9
2019-02-21T01:52:48.909Z,1017.9
2019-02-21T01:54:01.000Z,1017.9
2019-02-21T01:55:13.000Z,1017.9
2019-02-21T01:56:25.000Z,1017.9
2019-02-21T01:57:37.685Z,1017.9
2019-02-21T02:00:02.072Z,1017.9
2019-02-21T02:01:14.267Z,1017.9
2019-02-21T02:02:26.466Z,1017.9
2019-02-21T02:03:38.660Z,1017.9
2019-02-21T02:04:50.857Z,1017.9
2019-02-21T02:06:03.000Z,1018
2019-02-21T02:07:15.249Z,1017.9
2019-02-21T02:08:27.000Z,1017.9
2019-02-21T02:09:39.000Z,1018
2019-02-21T02:10:51.833Z,1017.9
2019-02-21T02:12:04.028Z,1018
2019-02-21T02:13:16.223Z,1017.9
2019-02-21T02:14:28.419Z,1018
2019-02-21T02:15:40.621Z,1017.9
2019-02-21T02:16:52.813Z,1018
2019-02-21T02:18:05.017Z,1017.9
2019-02-21T02:19:17.000Z,1017.9
2019-02-21T02:20:29.000Z,1017.9
2019-02-21T02:21:41.590Z,1017.9
2019-02-21T02:22:53.792Z,1017.9
2019-02-21T02:24:05.984Z,1017.9
2019-02-21T02:25:18.172Z,1017.9
2019-02-21T02:26:30.000Z,1017.9
2019-02-21T02:27:42.577Z,1017.8
2019-02-21T02:28:54.762Z,1017.8
2019-02-21T02:30:06.000Z,1017.8
2019-02-21T02:31:19.000Z,1017.8
2019-02-21T02:32:31.000Z,1017.7
2019-02-21T02:33:43.548Z,1017.8
2019-02-21T02:34:55.007Z,1017.8
2019-02-21T02:36:07.942Z,1017.8
2019-02-21T02:37:20.132Z,1017.8
2019-02-21T02:38:32.327Z,1017.8
2019-02-21T02:39:44.521Z,1017.8
2019-02-21T02:40:56.718Z,1017.8
2019-02-21T02:42:08.000Z,1017.8
2019-02-21T02:43:21.104Z,1017.8
2019-02-21T02:44:33.000Z,1017.7
2019-02-21T02:45:45.501Z,1017.8
2019-02-21T02:46:57.696Z,1017.8
2019-02-21T02:48:09.890Z,1017.8
2019-02-21T02:49:22.091Z,1017.8
2019-02-21T02:50:34.029Z,1017.8
2019-02-21T02:51:46.475Z,1017.8
2019-02-21T02:52:58.671Z,1017.8
2019-02-21T02:54:10.000Z,1017.8
2019-02-21T02:55:23.065Z,1017.8
2019-02-21T02:56:35.000Z,1017.8
2019-02-21T02:57:47.469Z,1017.8
2019-02-21T03:00:11.845Z,1017.8
2019-02-21T03:01:24.038Z,1017.8
2019-02-21T03:02:36.237Z,1017.8
2019-02-21T03:03:48.430Z,1017.8
2019-02-21T03:05:00.649Z,1017.8
2019-02-21T03:06:12.000Z,1017.8
2019-02-21T03:07:25.021Z,1017.8
2019-02-21T03:08:37.000Z,1017.8
2019-02-21T03:09:49.418Z,1017.8
2019-02-21T03:11:01.609Z,1017.8
2019-02-21T03:12:13.803Z,1017.9
2019-02-21T03:13:25.994Z,1017.9
2019-02-21T03:14:38.191Z,1017.9
2019-02-21T03:15:50.387Z,1017.9
2019-02-21T03:17:02.588Z,1017.9
2019-02-21T03:18:14.000Z,1017.9
2019-02-21T03:19:26.980Z,1017.9
2019-02-21T03:20:39.000Z,1017.9
2019-02-21T03:21:51.364Z,1018
2019-02-21T03:23:03.005Z,1018
2019-02-21T03:24:15.754Z,1017.9
2019-02-21T03:25:27.948Z,1017.9
2019-02-21T03:26:40.145Z,1017.9
2019-02-21T03:27:52.337Z,1018
2019-02-21T03:29:04.536Z,1018
2019-02-21T03:30:16.000Z,1018
2019-02-21T03:31:28.930Z,1018
2019-02-21T03:32:41.000Z,1017.9
2019-02-21T03:33:53.320Z,1018
2019-02-21T03:35:05.051Z,1018
2019-02-21T03:36:17.710Z,1017.9
2019-02-21T03:37:29.919Z,1018
2019-02-21T03:38:42.102Z,1018
2019-02-21T03:39:54.290Z,1018
2019-02-21T03:41:06.491Z,1018
2019-02-21T03:42:18.000Z,1018
2019-02-21T03:43:30.879Z,1018
2019-02-21T03:44:43.000Z,1018
2019-02-21T03:45:55.285Z,1018
2019-02-21T03:47:07.496Z,1018.1
2019-02-21T03:48:19.661Z,1018.1
2019-02-21T03:49:31.863Z,1018.1
2019-02-21T03:50:44.006Z,1018
2019-02-21T03:51:56.250Z,1018
2019-02-21T03:53:08.450Z,1018
2019-02-21T03:54:20.000Z,1018
2019-02-21T03:55:32.838Z,1018
2019-02-21T03:56:45.000Z,1018
2019-02-21T03:57:54.000Z,1018
2019-02-21T03:59:09.430Z,1018
2019-02-21T04:00:21.000Z,1017.9
2019-02-21T04:01:33.821Z,1018
2019-02-21T04:02:46.014Z,1018
2019-02-21T04:03:58.204Z,1018
2019-02-21T04:05:10.410Z,1018
2019-02-21T04:06:22.602Z,1018
2019-02-21T04:07:34.000Z,1018
2019-02-21T04:08:46.000Z,1018
2019-02-21T04:09:59.001Z,1018
2019-02-21T04:11:11.387Z,1018
2019-02-21T04:12:23.577Z,1018
2019-02-21T04:13:35.778Z,1018
2019-02-21T04:14:47.977Z,1018
2019-02-21T04:16:00.162Z,1018
2019-02-21T04:17:12.359Z,1018
2019-02-21T04:18:24.553Z,1018
2019-02-21T04:19:36.000Z,1018.1
2019-02-21T04:20:48.000Z,1018
2019-02-21T04:22:01.143Z,1018
2019-02-21T04:23:13.338Z,1018
2019-02-21T04:24:25.535Z,1018
2019-02-21T04:25:37.728Z,1018
2019-02-21T04:26:49.925Z,1018
2019-02-21T04:28:02.117Z,1018
2019-02-21T04:29:14.000Z,1018
2019-02-21T04:30:26.000Z,1018
2019-02-21T04:31:38.708Z,1018
2019-02-21T04:32:50.000Z,1018
2019-02-21T04:34:03.095Z,1018
2019-02-21T04:35:15.000Z,1018
2019-02-21T04:36:27.486Z,1018
2019-02-21T04:37:39.686Z,1018
2019-02-21T04:38:51.874Z,1018
2019-02-21T04:40:04.069Z,1018
2019-02-21T04:41:16.269Z,1017.9
2019-02-21T04:42:28.000Z,1018
2019-02-21T04:43:40.660Z,1018
2019-02-21T04:44:52.000Z,1018
2019-02-21T04:46:05.050Z,1018
2019-02-21T04:47:17.243Z,1017.9
2019-02-21T04:48:29.043Z,1018
2019-02-21T04:49:41.641Z,1018
2019-02-21T04:50:53.984Z,1018
2019-02-21T04:52:06.002Z,1017.9
2019-02-21T04:53:18.220Z,1018
2019-02-21T04:54:30.000Z,1018
2019-02-21T04:55:42.619Z,1018
2019-02-21T04:56:54.000Z,1018
2019-02-21T04:58:07.001Z,1017.9
2019-02-21T04:59:19.209Z,1017.9
2019-02-21T05:00:31.434Z,1018
2019-02-21T05:01:43.591Z,1017.9
2019-02-21T05:02:55.791Z,1017.9
2019-02-21T05:04:07.988Z,1017.9
2019-02-21T05:05:20.177Z,1017.9
2019-02-21T05:06:32.000Z,1017.9
2019-02-21T05:07:44.567Z,1017.9
2019-02-21T05:08:56.000Z,1017.9
2019-02-21T05:10:08.955Z,1017.9
2019-02-21T05:11:21.151Z,1017.9
2019-02-21T05:12:33.000Z,1017.9
2019-02-21T05:13:45.551Z,1017.9
2019-02-21T05:14:57.741Z,1017.8
2019-02-21T05:16:09.942Z,1017.9
2019-02-21T05:17:22.000Z,1017.9
2019-02-21T05:18:34.000Z,1017.9
2019-02-21T05:19:46.526Z,1017.9
2019-02-21T05:20:58.000Z,1017.8
2019-02-21T05:22:10.965Z,1017.9
2019-02-21T05:23:23.114Z,1017.9
2019-02-21T05:24:35.000Z,1017.9
2019-02-21T05:25:47.498Z,1017.9
2019-02-21T05:26:59.695Z,1017.9
2019-02-21T05:28:11.887Z,1017.9
2019-02-21T05:29:24.082Z,1017.9
2019-02-21T05:30:36.285Z,1017.9
2019-02-21T05:31:48.480Z,1017.9
2019-02-21T05:33:00.677Z,1017.9
2019-02-21T05:34:12.869Z,1017.8
2019-02-21T05:36:37.257Z,1017.8
2019-02-21T05:37:49.450Z,1017.8
2019-02-21T05:39:01.000Z,1017.7
2019-02-21T05:40:13.846Z,1017.7
2019-02-21T05:41:26.044Z,1017.7
2019-02-21T05:42:38.000Z,1017.8
2019-02-21T05:43:50.427Z,1017.8
2019-02-21T05:45:02.000Z,1017.8
2019-02-21T05:46:14.082Z,1017.8
2019-02-21T05:48:39.210Z,1017.7
2019-02-21T05:49:51.411Z,1017.8
2019-02-21T05:51:03.606Z,1017.8
2019-02-21T05:52:15.801Z,1017.8
2019-02-21T05:53:27.994Z,1017.8
2019-02-21T05:54:40.000Z,1017.8
2019-02-21T05:55:52.389Z,1017.8
2019-02-21T05:57:04.000Z,1017.7
2019-02-21T05:58:16.781Z,1017.8
2019-02-21T05:59:28.096Z,1017.8
2019-02-21T06:00:41.172Z,1017.8
2019-02-21T06:01:53.363Z,1017.7
2019-02-21T06:03:05.000Z,1017.8
2019-02-21T06:04:17.075Z,1017.7
2019-02-21T06:05:29.950Z,1017.8
2019-02-21T06:06:42.000Z,1017.7
2019-02-21T06:07:54.000Z,1017.7
2019-02-21T06:09:06.000Z,1017.7
2019-02-21T06:10:18.724Z,1017.7
2019-02-21T06:11:30.920Z,1017.7
2019-02-21T06:12:43.116Z,1017.7
2019-02-21T06:13:55.312Z,1017.7
2019-02-21T06:15:07.507Z,1017.8
2019-02-21T06:16:19.692Z,1017.7
2019-02-21T06:17:31.008Z,1017.8
2019-02-21T06:18:44.000Z,1017.8
2019-02-21T06:19:56.270Z,1017.8
2019-02-21T06:21:08.000Z,1017.8
2019-02-21T06:22:20.707Z,1017.7
2019-02-21T06:24:45.050Z,1017.7
2019-02-21T06:25:57.240Z,1017.7
2019-02-21T06:27:09.432Z,1017.7
2019-02-21T06:28:21.636Z,1017.7
2019-02-21T06:29:33.825Z,1017.7
2019-02-21T06:30:46.000Z,1017.7
2019-02-21T06:31:58.211Z,1017.7
2019-02-21T06:33:10.000Z,1017.7
2019-02-21T06:34:22.603Z,1017.8
2019-02-21T06:35:34.793Z,1017.8
2019-02-21T06:36:46.990Z,1017.8
2019-02-21T06:37:59.181Z,1017.7
2019-02-21T06:39:11.379Z,1017.8
2019-02-21T06:40:23.566Z,1017.7
2019-02-21T06:41:35.761Z,1017.7
2019-02-21T06:42:47.000Z,1017.7
2019-02-21T06:44:00.154Z,1017.7
2019-02-21T06:45:12.000Z,1017.7
2019-02-21T06:46:24.000Z,1017.7
2019-02-21T06:48:48.092Z,1017.7
2019-02-21T06:50:01.118Z,1017.7
2019-02-21T06:51:13.306Z,1017.7
2019-02-21T06:52:25.563Z,1017.7
2019-02-21T06:53:37.703Z,1017.7
2019-02-21T06:54:49.000Z,1017.6
2019-02-21T06:56:02.088Z,1017.6
2019-02-21T06:57:14.000Z,1017.7
2019-02-21T06:58:26.476Z,1017.7
2019-02-21T06:59:38.672Z,1017.7
2019-02-21T07:00:50.857Z,1017.7
2019-02-21T07:02:03.000Z,1017.7
2019-02-21T07:03:15.025Z,1017.7
2019-02-21T07:04:27.450Z,1017.6
2019-02-21T07:05:39.635Z,1017.6
2019-02-21T07:06:51.827Z,1017.6
2019-02-21T07:08:04.000Z,1017.6
2019-02-21T07:09:16.000Z,1017.7
2019-02-21T07:10:28.041Z,1017.7
2019-02-21T07:12:52.791Z,1017.7
2019-02-21T07:14:05.003Z,1017.7
2019-02-21T07:15:17.188Z,1017.7
2019-02-21T07:16:29.375Z,1017.7
2019-02-21T07:17:41.570Z,1017.8
2019-02-21T07:18:53.764Z,1017.8
2019-02-21T07:20:05.959Z,1017.7
2019-02-21T07:21:18.150Z,1017.7
2019-02-21T07:22:30.344Z,1017.8
2019-02-21T07:23:42.540Z,1017.8
2019-02-21T07:24:54.073Z,1017.7
2019-02-21T07:26:06.932Z,1017.8
2019-02-21T07:27:19.128Z,1017.8
2019-02-21T07:28:31.323Z,1017.8
2019-02-21T07:29:43.521Z,1017.8
2019-02-21T07:30:55.000Z,1017.8
2019-02-21T07:32:07.893Z,1017.9
2019-02-21T07:33:20.085Z,1017.9
2019-02-21T07:34:32.283Z,1017.9
2019-02-21T07:35:44.474Z,1017.9
2019-02-21T07:36:56.674Z,1017.9
2019-02-21T07:38:08.858Z,1017.9
2019-02-21T07:39:21.054Z,1018
2019-02-21T07:40:33.385Z,1018
2019-02-21T07:41:45.447Z,1017.9
2019-02-21T07:42:57.065Z,1018
2019-02-21T07:44:09.083Z,1018
2019-02-21T07:45:22.000Z,1018
2019-02-21T07:46:34.222Z,1018
2019-02-21T07:47:46.041Z,1018.1
2019-02-21T07:48:58.606Z,1018.1
2019-02-21T07:50:10.806Z,1018.1
2019-02-21T07:51:22.997Z,1018.1
2019-02-21T07:52:35.190Z,1018.1
2019-02-21T07:53:47.382Z,1018.2
2019-02-21T07:54:59.000Z,1018.1
2019-02-21T07:56:11.772Z,1018.2
2019-02-21T07:57:23.000Z,1018.2
2019-02-21T07:58:36.000Z,1018.1
2019-02-21T08:01:00.546Z,1018.1
2019-02-21T08:02:12.743Z,1018.2
2019-02-21T08:03:24.941Z,1018.2
2019-02-21T08:04:37.012Z,1018.2
2019-02-21T08:05:49.323Z,1018.2
2019-02-21T08:07:01.000Z,1018.2
2019-02-21T08:08:13.708Z,1018.3
2019-02-21T08:09:25.904Z,1018.2
2019-02-21T08:10:38.010Z,1018.3
2019-02-21T08:13:02.482Z,1018.3
2019-02-21T08:14:14.674Z,1018.3
2019-02-21T08:15:26.877Z,1018.3
2019-02-21T08:16:39.204Z,1018.2
2019-02-21T08:17:51.259Z,1018.3
2019-02-21T08:19:03.447Z,1018.3
2019-02-21T08:20:15.651Z,1018.3
2019-02-21T08:21:27.000Z,1018.3
2019-02-21T08:22:40.003Z,1018.3
2019-02-21T08:25:04.423Z,1018.3
2019-02-21T08:26:16.613Z,1018.3
2019-02-21T08:27:28.812Z,1018.3
2019-02-21T08:28:41.000Z,1018.3
2019-02-21T08:29:53.197Z,1018.3
2019-02-21T08:31:05.000Z,1018.3
2019-02-21T08:32:17.726Z,1018.3
2019-02-21T08:33:29.772Z,1018.3
2019-02-21T08:34:41.970Z,1018.2
2019-02-21T08:35:54.172Z,1018.2
2019-02-21T08:37:06.035Z,1018.3
2019-02-21T08:38:18.549Z,1018.2
2019-02-21T08:39:30.743Z,1018.2
2019-02-21T08:40:42.938Z,1018.2
2019-02-21T08:41:55.132Z,1018.2
2019-02-21T08:43:07.000Z,1018.2
2019-02-21T08:44:19.524Z,1018.2
2019-02-21T08:45:31.000Z,1018.2
2019-02-21T08:46:43.911Z,1018.2
2019-02-21T08:49:08.301Z,1018.3
2019-02-21T08:50:20.493Z,1018.2
2019-02-21T08:51:32.680Z,1018.2
2019-02-21T08:52:44.879Z,1018.2
2019-02-21T08:53:57.090Z,1018.2
2019-02-21T08:55:09.000Z,1018.2
2019-02-21T08:56:21.465Z,1018.2
2019-02-21T08:57:33.000Z,1018.2
2019-02-21T08:58:45.840Z,1018.2
2019-02-21T09:01:10.023Z,1018.2
2019-02-21T09:02:22.424Z,1018.2
2019-02-21T09:03:34.617Z,1018.2
2019-02-21T09:04:46.081Z,1018.2
2019-02-21T09:05:59.010Z,1018.2
2019-02-21T09:07:11.000Z,1018.2
2019-02-21T09:08:23.397Z,1018.2
2019-02-21T09:09:35.000Z,1018.2
2019-02-21T09:10:47.000Z,1018.2
2019-02-21T09:11:59.972Z,1018.3
2019-02-21T09:13:12.169Z,1018.2
2019-02-21T09:14:24.361Z,1018.2
2019-02-21T09:15:36.056Z,1018.2
2019-02-21T09:16:48.075Z,1018.1
2019-02-21T09:18:00.950Z,1018.2
2019-02-21T09:19:13.000Z,1018.2
2019-02-21T09:20:25.330Z,1018.2
2019-02-21T09:21:37.535Z,1018.2
2019-02-21T09:22:49.722Z,1018.2
2019-02-21T09:24:01.910Z,1018.2
2019-02-21T09:25:14.112Z,1018.2
2019-02-21T09:26:26.302Z,1018.2
2019-02-21T09:27:38.500Z,1018.2
2019-02-21T09:28:50.689Z,1018.2
2019-02-21T09:30:02.897Z,1018.2
2019-02-21T09:31:15.083Z,1018.2
2019-02-21T09:32:27.271Z,1018.1
2019-02-21T09:33:39.000Z,1018.2
2019-02-21T09:34:51.659Z,1018.1
2019-02-21T09:36:03.860Z,1018.2
2019-02-21T09:37:16.049Z,1018.2
2019-02-21T09:38:28.248Z,1018.1
2019-02-21T09:39:40.436Z,1018.1
2019-02-21T09:40:52.625Z,1018.1
2019-02-21T09:42:04.825Z,1018
2019-02-21T09:43:17.029Z,1018.1
2019-02-21T09:44:29.222Z,1018.1
2019-02-21T09:45:41.000Z,1018.1
2019-02-21T09:46:53.599Z,1018.1
2019-02-21T09:48:05.794Z,1018.1
2019-02-21T09:49:17.981Z,1018.1
2019-02-21T09:50:30.184Z,1018.1
2019-02-21T09:51:42.036Z,1018.1
2019-02-21T09:52:54.565Z,1018.1
2019-02-21T09:54:06.756Z,1018
2019-02-21T09:55:18.000Z,1018.1
2019-02-21T09:56:31.014Z,1018
2019-02-21T09:57:43.367Z,1018
2019-02-21T09:58:55.531Z,1018
2019-02-21T10:00:07.728Z,1018.1
2019-02-21T10:01:19.099Z,1018
2019-02-21T10:02:32.012Z,1018.1
2019-02-21T10:03:44.312Z,1018.2
2019-02-21T10:04:56.509Z,1018.2
2019-02-21T10:06:08.070Z,1018.1
2019-02-21T10:07:20.000Z,1018.1
2019-02-21T10:08:33.008Z,1018.1
2019-02-21T10:09:45.280Z,1018
2019-02-21T10:10:57.476Z,1018
2019-02-21T10:12:09.670Z,1018.1
2019-02-21T10:13:21.858Z,1018
2019-02-21T10:14:34.053Z,1018
2019-02-21T10:15:46.037Z,1018
2019-02-21T10:16:58.441Z,1018
2019-02-21T10:18:10.635Z,1017.9
2019-02-21T10:19:22.832Z,1017.9
2019-02-21T10:20:35.024Z,1017.9
2019-02-21T10:21:47.000Z,1017.9
2019-02-21T10:22:59.424Z,1017.9
2019-02-21T10:24:11.606Z,1017.9
2019-02-21T10:25:23.810Z,1017.9
2019-02-21T10:26:35.990Z,1017.9
2019-02-21T10:27:48.188Z,1017.9
2019-02-21T10:29:00.386Z,1017.9
2019-02-21T10:30:12.578Z,1017.9
2019-02-21T10:31:24.774Z,1017.9
2019-02-21T10:32:36.096Z,1017.9
2019-02-21T10:33:49.172Z,1017.8
2019-02-21T10:35:01.352Z,1017.9
2019-02-21T10:37:25.736Z,1017.8
2019-02-21T10:38:37.933Z,1017.9
2019-02-21T10:39:50.126Z,1017.9
2019-02-21T10:41:02.328Z,1017.8
2019-02-21T10:42:14.514Z,1017.8
2019-02-21T10:43:26.000Z,1017.7
2019-02-21T10:44:38.000Z,1017.7
2019-02-21T10:45:51.000Z,1017.6
2019-02-21T10:47:03.286Z,1017.7
2019-02-21T10:48:15.475Z,1017.6
2019-02-21T10:49:27.669Z,1017.6
2019-02-21T10:50:39.882Z,1017.6
2019-02-21T10:51:52.057Z,1017.5
2019-02-21T10:53:04.253Z,1017.5
2019-02-21T10:54:16.452Z,1017.5
2019-02-21T10:55:28.650Z,1017.6
2019-02-21T10:56:40.842Z,1017.5
2019-02-21T10:57:53.000Z,1017.5
2019-02-21T10:59:05.226Z,1017.5
2019-02-21T11:00:17.042Z,1017.5
2019-02-21T11:01:29.617Z,1017.5
2019-02-21T11:02:41.800Z,1017.5
2019-02-21T11:03:54.004Z,1017.5
2019-02-21T11:05:06.190Z,1017.5
2019-02-21T11:06:18.432Z,1017.5
2019-02-21T11:07:30.581Z,1017.4
2019-02-21T11:08:42.769Z,1017.4
2019-02-21T11:09:54.000Z,1017.3
2019-02-21T11:11:07.161Z,1017.4
2019-02-21T11:12:19.351Z,1017.3
2019-02-21T11:13:31.544Z,1017.2
2019-02-21T11:14:43.747Z,1017.3
2019-02-21T11:15:55.941Z,1017.2
2019-02-21T11:17:08.127Z,1017.2
2019-02-21T11:18:20.324Z,1017.2
2019-02-21T11:19:32.520Z,1017.2
2019-02-21T11:20:44.000Z,1017.2
2019-02-21T11:21:56.000Z,1017.2
2019-02-21T11:23:09.098Z,1017.2
2019-02-21T11:24:21.293Z,1017.2
2019-02-21T11:25:33.484Z,1017.2
2019-02-21T11:26:45.677Z,1017.2
2019-02-21T11:27:57.000Z,1017.2
2019-02-21T11:29:10.063Z,1017.1
2019-02-21T11:30:22.263Z,1017.1
2019-02-21T11:31:34.000Z,1017.1
2019-02-21T11:32:46.645Z,1017.1
2019-02-21T11:33:58.837Z,1017.1
2019-02-21T11:35:11.000Z,1017.1
2019-02-21T11:36:23.228Z,1016.9
2019-02-21T11:37:35.421Z,1017
2019-02-21T11:38:47.061Z,1017.1
2019-02-21T11:39:59.819Z,1017
2019-02-21T11:41:12.002Z,1016.9
2019-02-21T11:42:24.194Z,1016.9
2019-02-21T11:43:36.398Z,1016.8
2019-02-21T11:44:48.580Z,1016.8
2019-02-21T11:46:00.000Z,1016.7
2019-02-21T11:47:12.969Z,1016.8
2019-02-21T11:48:25.169Z,1016.8
2019-02-21T11:49:37.358Z,1016.8
2019-02-21T11:50:49.055Z,1016.8
2019-02-21T11:52:01.744Z,1016.8
2019-02-21T11:53:13.938Z,1016.8
2019-02-21T11:54:26.130Z,1016.8
2019-02-21T11:55:38.000Z,1016.8
2019-02-21T11:56:50.052Z,1016.8
2019-02-21T11:58:02.715Z,1016.8
2019-02-21T11:59:14.091Z,1016.8
2019-02-21T12:00:27.108Z,1016.9
2019-02-21T12:01:39.298Z,1016.8
2019-02-21T12:02:51.486Z,1016.8
2019-02-21T12:04:03.679Z,1016.8
2019-02-21T12:05:15.880Z,1016.9
2019-02-21T12:06:28.069Z,1016.9
2019-02-21T12:07:40.000Z,1017
2019-02-21T12:08:52.455Z,1017
2019-02-21T12:10:04.673Z,1017
2019-02-21T12:11:16.844Z,1017
2019-02-21T12:12:29.034Z,1017
2019-02-21T12:13:41.236Z,1016.9
2019-02-21T12:14:53.043Z,1017
2019-02-21T12:16:05.626Z,1016.9
2019-02-21T12:17:17.817Z,1017
2019-02-21T12:18:30.003Z,1017
2019-02-21T12:19:42.000Z,1017
2019-02-21T12:20:54.039Z,1017.1
2019-02-21T12:22:06.000Z,1017
2019-02-21T12:23:18.077Z,1017
2019-02-21T12:24:30.986Z,1017.1
2019-02-21T12:25:43.000Z,1017
2019-02-21T12:26:55.361Z,1016.9
2019-02-21T12:28:07.554Z,1017
2019-02-21T12:29:19.816Z,1016.9
2019-02-21T12:30:31.947Z,1017.1
2019-02-21T12:31:44.000Z,1017.1
2019-02-21T12:32:56.334Z,1016.9
2019-02-21T12:34:08.000Z,1017
2019-02-21T12:35:20.716Z,1017
2019-02-21T12:36:32.916Z,1017
2019-02-21T12:37:45.106Z,1017.1
2019-02-21T12:38:57.293Z,1017.1
2019-02-21T12:40:09.497Z,1017.1
2019-02-21T12:41:21.683Z,1017.2
2019-02-21T12:42:33.883Z,1017.2
2019-02-21T12:43:46.000Z,1017.2
2019-02-21T12:44:58.270Z,1017.2
2019-02-21T12:46:10.000Z,1017.2
2019-02-21T12:47:22.658Z,1017.2
2019-02-21T12:48:34.850Z,1017.1
2019-02-21T12:49:47.039Z,1017.1
2019-02-21T12:50:59.000Z,1017.1
2019-02-21T12:52:11.430Z,1017.2
2019-02-21T12:53:23.623Z,1017.1
2019-02-21T12:54:35.885Z,1017.1
2019-02-21T12:55:47.000Z,1017.1
2019-02-21T12:57:00.207Z,1017.1
2019-02-21T12:58:12.000Z,1017.1
2019-02-21T12:59:24.594Z,1017.2
2019-02-21T13:00:36.786Z,1017.2
2019-02-21T13:01:48.983Z,1017.2
2019-02-21T13:03:01.177Z,1017.2
2019-02-21T13:04:13.037Z,1017.2
2019-02-21T13:05:25.562Z,1017.2
2019-02-21T13:06:37.751Z,1017.2
2019-02-21T13:07:49.971Z,1017.2
2019-02-21T13:09:02.145Z,1017.2
2019-02-21T13:10:14.337Z,1017.2
2019-02-21T13:11:26.522Z,1017.2
2019-02-21T13:12:38.722Z,1017.2
2019-02-21T13:13:50.911Z,1017.2
2019-02-21T13:15:03.109Z,1017.2
2019-02-21T13:16:15.317Z,1017.2
2019-02-21T13:18:39.690Z,1017.2
2019-02-21T13:19:51.000Z,1017.1
2019-02-21T13:21:04.088Z,1017.1
2019-02-21T13:22:16.276Z,1017.1
2019-02-21T13:23:28.048Z,1017.1
2019-02-21T13:24:40.659Z,1017
2019-02-21T13:25:52.848Z,1017
2019-02-21T13:27:05.045Z,1017
2019-02-21T13:28:17.234Z,1017
2019-02-21T13:29:29.432Z,1017
2019-02-21T13:30:41.626Z,1016.9
2019-02-21T13:31:53.821Z,1016.9
2019-02-21T13:33:06.017Z,1016.9
2019-02-21T13:34:18.000Z,1016.9
2019-02-21T13:35:30.396Z,1016.9
2019-02-21T13:36:42.595Z,1016.9
2019-02-21T13:37:54.079Z,1016.9
2019-02-21T13:39:06.980Z,1016.9
2019-02-21T13:40:19.172Z,1016.8
2019-02-21T13:41:31.365Z,1016.7
2019-02-21T13:42:43.574Z,1016.8
2019-02-21T13:43:55.758Z,1016.7
2019-02-21T13:45:07.000Z,1016.9
2019-02-21T13:46:20.000Z,1016.9
2019-02-21T13:47:32.333Z,1016.9
2019-02-21T13:49:56.728Z,1016.9
2019-02-21T13:51:08.919Z,1016.9
2019-02-21T13:52:21.114Z,1016.9
2019-02-21T13:53:33.304Z,1016.9
2019-02-21T13:54:45.502Z,1016.9
2019-02-21T13:55:57.000Z,1016.9
2019-02-21T13:57:09.888Z,1016.9
2019-02-21T13:58:22.000Z,1017
2019-02-21T13:59:34.271Z,1017
2019-02-21T14:00:46.465Z,1017.1
2019-02-21T14:01:58.663Z,1017
2019-02-21T14:03:10.855Z,1017
2019-02-21T14:04:23.049Z,1017
2019-02-21T14:05:35.243Z,1017.1
2019-02-21T14:06:47.000Z,1017.1
2019-02-21T14:07:59.000Z,1017
2019-02-21T14:09:11.820Z,1017
2019-02-21T14:10:23.000Z,1017
2019-02-21T14:11:36.210Z,1017
2019-02-21T14:12:48.405Z,1017
2019-02-21T14:14:00.000Z,1017
2019-02-21T14:15:12.790Z,1017.1
2019-02-21T14:16:24.988Z,1017
2019-02-21T14:17:37.178Z,1017.1
2019-02-21T14:18:49.373Z,1017.1
2019-02-21T14:20:01.000Z,1017.2
2019-02-21T14:22:25.000Z,1017.2
2019-02-21T14:23:38.147Z,1017.2
2019-02-21T14:24:50.343Z,1017.2
2019-02-21T14:26:02.538Z,1017.3
2019-02-21T14:27:14.735Z,1017.3
2019-02-21T14:28:26.924Z,1017.2
2019-02-21T14:29:39.121Z,1017.2
2019-02-21T14:30:51.305Z,1017.2
2019-02-21T14:32:03.499Z,1017.2
2019-02-21T14:33:15.069Z,1017.3
2019-02-21T14:34:27.886Z,1017.2
2019-02-21T14:35:40.099Z,1017.2
2019-02-21T14:36:52.273Z,1017.3
2019-02-21T14:38:04.479Z,1017.2
2019-02-21T14:39:16.667Z,1017.2
2019-02-21T14:40:28.859Z,1017.3
2019-02-21T14:41:41.058Z,1017.3
2019-02-21T14:42:53.245Z,1017.2
2019-02-21T14:44:04.000Z,1017.2
2019-02-21T14:45:17.638Z,1017.2
2019-02-21T14:46:29.000Z,1017.2
2019-02-21T14:47:42.024Z,1017.2
2019-02-21T14:50:06.425Z,1017.2
2019-02-21T14:51:18.595Z,1017.2
2019-02-21T14:52:30.790Z,1017.2
2019-02-21T14:53:42.992Z,1017.1
2019-02-21T14:54:55.184Z,1017.1
2019-02-21T14:56:07.000Z,1017.1
2019-02-21T14:57:19.575Z,1017.2
2019-02-21T14:58:31.000Z,1017.2
2019-02-21T14:59:43.962Z,1017.2
2019-02-21T15:00:56.147Z,1017.1
2019-02-21T15:02:08.342Z,1017.2
2019-02-21T15:03:20.548Z,1017.1
2019-02-21T15:04:32.736Z,1017.1
2019-02-21T15:05:44.923Z,1017
2019-02-21T15:08:09.000Z,1017
2019-02-21T15:09:21.506Z,1017
2019-02-21T15:10:33.000Z,1017
2019-02-21T15:11:45.897Z,1017
2019-02-21T15:12:58.084Z,1017
2019-02-21T15:14:10.291Z,1017
2019-02-21T15:15:22.047Z,1017
2019-02-21T15:16:34.674Z,1017
2019-02-21T15:17:46.860Z,1017
2019-02-21T15:18:59.052Z,1017
2019-02-21T15:20:11.245Z,1017
2019-02-21T15:21:23.443Z,1016.9
2019-02-21T15:22:35.000Z,1017
2019-02-21T15:23:47.832Z,1016.9
2019-02-21T15:25:00.022Z,1016.9
2019-02-21T15:26:12.000Z,1016.9
2019-02-21T15:27:24.410Z,1016.9
2019-02-21T15:28:36.613Z,1016.9
2019-02-21T15:29:48.817Z,1017
2019-02-21T15:31:00.099Z,1017
2019-02-21T15:32:13.000Z,1017
2019-02-21T15:33:25.000Z,1017
2019-02-21T15:34:37.575Z,1017